| Date | Time | Temp. (oF) | Dew Point (oF) | Rel. Hum. (%) | Press. (in.) | Wind Dir. | Wind Speed (mph) | Hourly Rainfall (in.) |
|
|---|---|---|---|---|---|---|---|---|---|
| 1 | 06/18 | 00:00 | 74 | 57 | 57 | 30.12 | NNW | 1 | 0.00 |
| 2 | 06/17 | 23:00 | 76 | 57 | 53 | 30.11 | WNW | 4 | 0.00 |
| 3 | 06/17 | 22:00 | 78 | 57 | 50 | 30.08 | W | 2 | 0.00 |
| 4 | 06/17 | 21:00 | 81 | 58 | 47 | 30.04 | WNW | 2 | 0.00 |
| 5 | 06/17 | 20:00 | 84 | 59 | 44 | 29.99 | W | 4 | 0.00 |
| 6 | 06/17 | 19:00 | 86 | 61 | 44 | 29.97 | NW | 6 | 0.00 |
| 7 | 06/17 | 18:00 | 87 | 64 | 47 | 29.96 | WSW | 5 | 0.00 |
| 8 | 06/17 | 17:00 | 86 | 61 | 45 | 29.95 | WNW | 5 | 0.00 |
| 9 | 06/17 | 16:00 | 87 | 63 | 46 | 29.96 | W | 11 | 0.00 |
| 10 | 06/17 | 15:00 | 86 | 62 | 46 | 29.97 | WNW | 9 | 0.00 |
| 11 | 06/17 | 14:00 | 84 | 60 | 45 | 29.99 | WNW | 7 | 0.00 |
| 12 | 06/17 | 13:00 | 83 | 58 | 44 | 30.00 | NNW | 20 | 0.00 |
| 13 | 06/17 | 12:00 | 81 | 58 | 47 | 30.01 | NNW | 6 | 0.00 |
| 14 | 06/17 | 11:00 | 78 | 56 | 48 | 30.01 | NNW | 17 | 0.00 |
| 15 | 06/17 | 10:00 | 75 | 61 | 64 | 30.01 | N | 5 | 0.00 |
| 16 | 06/17 | 09:00 | 70 | 64 | 83 | 30.02 | NNW | 6 | 0.00 |
| 17 | 06/17 | 08:00 | 68 | 65 | 91 | 30.01 | WNW | 3 | 0.00 |
| 18 | 06/17 | 07:00 | 67 | 65 | 96 | 30.00 | W | 3 | 0.00 |
| 19 | 06/17 | 06:00 | 66 | 64 | 95 | 29.98 | WNW | 3 | 0.01 |
| 20 | 06/17 | 05:00 | 67 | 63 | 89 | 29.97 | NNW | 7 | 0.01 |
| 21 | 06/17 | 04:00 | 68 | 65 | 92 | 29.98 | WSW | 4 | 0.00 |
| 22 | 06/17 | 03:00 | 69 | 67 | 94 | 29.98 | NW | 5 | 0.00 |
| 23 | 06/17 | 02:00 | 70 | 68 | 96 | 29.99 | NNW | 5 | 0.00 |
| 24 | 06/17 | 01:00 | 70 | 69 | 99 | 29.99 | N | 4 | 0.00 |